sensor_id;sensor_type;location;lat;lon;timestamp;P1;durP1;ratioP1;P2;durP2;ratioP2
71413;SDS011;59226;53.212;5.728;2023-02-15T00:01:08;6.72;;;3.33;;
71413;SDS011;59226;53.212;5.728;2023-02-15T00:03:33;4.83;;;2.27;;
71413;SDS011;59226;53.212;5.728;2023-02-15T00:05:58;5.72;;;3.28;;
71413;SDS011;59226;53.212;5.728;2023-02-15T00:08:23;6.60;;;2.80;;
71413;SDS011;59226;53.212;5.728;2023-02-15T00:10:49;4.53;;;2.67;;
71413;SDS011;59226;53.212;5.728;2023-02-15T00:13:14;8.50;;;4.20;;
71413;SDS011;59226;53.212;5.728;2023-02-15T00:15:39;6.43;;;4.00;;
71413;SDS011;59226;53.212;5.728;2023-02-15T00:18:04;6.13;;;4.03;;
71413;SDS011;59226;53.212;5.728;2023-02-15T00:20:30;5.80;;;2.57;;
71413;SDS011;59226;53.212;5.728;2023-02-15T00:22:55;4.70;;;2.80;;
71413;SDS011;59226;53.212;5.728;2023-02-15T00:25:20;3.57;;;1.83;;
71413;SDS011;59226;53.212;5.728;2023-02-15T00:27:45;3.70;;;2.60;;
71413;SDS011;59226;53.212;5.728;2023-02-15T00:30:11;5.97;;;2.83;;
71413;SDS011;59226;53.212;5.728;2023-02-15T00:32:36;5.37;;;2.23;;
71413;SDS011;59226;53.212;5.728;2023-02-15T00:35:01;3.67;;;2.27;;
71413;SDS011;59226;53.212;5.728;2023-02-15T00:37:26;4.20;;;2.30;;
71413;SDS011;59226;53.212;5.728;2023-02-15T00:39:51;4.53;;;1.83;;
71413;SDS011;59226;53.212;5.728;2023-02-15T00:42:17;7.73;;;2.20;;
71413;SDS011;59226;53.212;5.728;2023-02-15T00:44:42;4.07;;;2.43;;
71413;SDS011;59226;53.212;5.728;2023-02-15T00:47:07;5.10;;;2.83;;
71413;SDS011;59226;53.212;5.728;2023-02-15T00:49:32;3.73;;;2.03;;
71413;SDS011;59226;53.212;5.728;2023-02-15T00:51:58;4.40;;;2.40;;
71413;SDS011;59226;53.212;5.728;2023-02-15T00:54:23;4.70;;;1.90;;
71413;SDS011;59226;53.212;5.728;2023-02-15T00:56:48;3.97;;;1.93;;
71413;SDS011;59226;53.212;5.728;2023-02-15T00:59:13;4.83;;;2.37;;
71413;SDS011;59226;53.212;5.728;2023-02-15T01:01:38;3.80;;;2.27;;
71413;SDS011;59226;53.212;5.728;2023-02-15T01:04:04;5.37;;;2.43;;
71413;SDS011;59226;53.212;5.728;2023-02-15T01:06:29;7.77;;;4.53;;
71413;SDS011;59226;53.212;5.728;2023-02-15T01:08:54;5.93;;;3.03;;
71413;SDS011;59226;53.212;5.728;2023-02-15T01:11:21;4.50;;;2.30;;
71413;SDS011;59226;53.212;5.728;2023-02-15T01:13:47;3.53;;;1.88;;
71413;SDS011;59226;53.212;5.728;2023-02-15T01:16:13;6.70;;;2.75;;
71413;SDS011;59226;53.212;5.728;2023-02-15T01:18:38;6.93;;;2.33;;
71413;SDS011;59226;53.212;5.728;2023-02-15T01:21:13;3.40;;;1.80;;
71413;SDS011;59226;53.212;5.728;2023-02-15T01:23:41;6.32;;;2.25;;
71413;SDS011;59226;53.212;5.728;2023-02-15T01:26:06;4.87;;;2.23;;
71413;SDS011;59226;53.212;5.728;2023-02-15T01:28:32;4.20;;;2.08;;
71413;SDS011;59226;53.212;5.728;2023-02-15T01:30:58;4.57;;;2.53;;
71413;SDS011;59226;53.212;5.728;2023-02-15T01:33:24;5.72;;;2.88;;
71413;SDS011;59226;53.212;5.728;2023-02-15T01:35:49;5.03;;;2.47;;
71413;SDS011;59226;53.212;5.728;2023-02-15T01:38:20;5.13;;;2.63;;
71413;SDS011;59226;53.212;5.728;2023-02-15T01:40:45;5.73;;;2.80;;
71413;SDS011;59226;53.212;5.728;2023-02-15T01:43:11;4.93;;;2.67;;
71413;SDS011;59226;53.212;5.728;2023-02-15T01:45:37;3.38;;;1.58;;
71413;SDS011;59226;53.212;5.728;2023-02-15T01:48:03;4.33;;;1.47;;
71413;SDS011;59226;53.212;5.728;2023-02-15T01:50:30;5.40;;;2.78;;
71413;SDS011;59226;53.212;5.728;2023-02-15T01:53:02;4.60;;;2.50;;
71413;SDS011;59226;53.212;5.728;2023-02-15T01:55:38;4.47;;;2.25;;
71413;SDS011;59226;53.212;5.728;2023-02-15T01:58:03;4.78;;;2.47;;
71413;SDS011;59226;53.212;5.728;2023-02-15T02:00:29;4.07;;;2.17;;
71413;SDS011;59226;53.212;5.728;2023-02-15T02:02:55;4.30;;;2.47;;
71413;SDS011;59226;53.212;5.728;2023-02-15T02:05:21;4.00;;;2.25;;
71413;SDS011;59226;53.212;5.728;2023-02-15T02:07:47;4.87;;;2.63;;
71413;SDS011;59226;53.212;5.728;2023-02-15T02:10:15;3.70;;;2.40;;
71413;SDS011;59226;53.212;5.728;2023-02-15T02:12:40;5.07;;;2.47;;
71413;SDS011;59226;53.212;5.728;2023-02-15T02:15:07;4.40;;;1.88;;
71413;SDS011;59226;53.212;5.728;2023-02-15T02:17:40;4.33;;;2.40;;
71413;SDS011;59226;53.212;5.728;2023-02-15T02:35:53;3.90;;;1.53;;
71413;SDS011;59226;53.212;5.728;2023-02-15T02:38:27;3.47;;;2.10;;
71413;SDS011;59226;53.212;5.728;2023-02-15T02:41:01;2.70;;;1.60;;
71413;SDS011;59226;53.212;5.728;2023-02-15T02:43:41;3.22;;;1.95;;
71413;SDS011;59226;53.212;5.728;2023-02-15T02:48:37;3.10;;;1.90;;
71413;SDS011;59226;53.212;5.728;2023-02-15T02:51:03;6.00;;;2.87;;
71413;SDS011;59226;53.212;5.728;2023-02-15T02:53:29;4.43;;;1.97;;
71413;SDS011;59226;53.212;5.728;2023-02-15T02:55:56;9.57;;;2.17;;
71413;SDS011;59226;53.212;5.728;2023-02-15T02:58:24;6.40;;;2.33;;
71413;SDS011;59226;53.212;5.728;2023-02-15T03:00:57;6.80;;;2.38;;
71413;SDS011;59226;53.212;5.728;2023-02-15T03:05:55;4.35;;;2.42;;
71413;SDS011;59226;53.212;5.728;2023-02-15T03:08:22;4.97;;;3.15;;
71413;SDS011;59226;53.212;5.728;2023-02-15T03:10:48;4.75;;;2.13;;
71413;SDS011;59226;53.212;5.728;2023-02-15T03:13:16;4.65;;;2.17;;
71413;SDS011;59226;53.212;5.728;2023-02-15T03:15:41;3.93;;;1.80;;
71413;SDS011;59226;53.212;5.728;2023-02-15T03:18:28;2.77;;;1.50;;
71413;SDS011;59226;53.212;5.728;2023-02-15T03:20:55;3.33;;;1.58;;
71413;SDS011;59226;53.212;5.728;2023-02-15T03:23:23;5.13;;;2.22;;
71413;SDS011;59226;53.212;5.728;2023-02-15T03:25:50;3.47;;;2.63;;
71413;SDS011;59226;53.212;5.728;2023-02-15T03:28:18;5.30;;;2.17;;
71413;SDS011;59226;53.212;5.728;2023-02-15T03:30:45;2.57;;;1.60;;
71413;SDS011;59226;53.212;5.728;2023-02-15T03:33:11;4.88;;;2.83;;
71413;SDS011;59226;53.212;5.728;2023-02-15T03:36:01;3.72;;;2.13;;
71413;SDS011;59226;53.212;5.728;2023-02-15T03:38:32;3.63;;;2.55;;
71413;SDS011;59226;53.212;5.728;2023-02-15T03:40:58;3.45;;;2.03;;
71413;SDS011;59226;53.212;5.728;2023-02-15T03:46:23;3.78;;;2.35;;
71413;SDS011;59226;53.212;5.728;2023-02-15T03:48:54;3.28;;;1.65;;
71413;SDS011;59226;53.212;5.728;2023-02-15T03:51:21;4.90;;;2.28;;
71413;SDS011;59226;53.212;5.728;2023-02-15T03:54:19;4.90;;;2.30;;
71413;SDS011;59226;53.212;5.728;2023-02-15T03:57:04;2.63;;;1.80;;
71413;SDS011;59226;53.212;5.728;2023-02-15T03:59:47;5.28;;;2.45;;
71413;SDS011;59226;53.212;5.728;2023-02-15T04:02:38;5.90;;;2.67;;
71413;SDS011;59226;53.212;5.728;2023-02-15T04:05:05;4.63;;;2.00;;
71413;SDS011;59226;53.212;5.728;2023-02-15T04:07:30;3.67;;;2.43;;
71413;SDS011;59226;53.212;5.728;2023-02-15T04:09:55;3.00;;;1.87;;
71413;SDS011;59226;53.212;5.728;2023-02-15T04:12:39;3.28;;;2.10;;
71413;SDS011;59226;53.212;5.728;2023-02-15T04:15:04;4.77;;;2.20;;
71413;SDS011;59226;53.212;5.728;2023-02-15T04:17:48;3.15;;;1.85;;
71413;SDS011;59226;53.212;5.728;2023-02-15T04:20:13;2.67;;;1.50;;
71413;SDS011;59226;53.212;5.728;2023-02-15T04:22:57;2.58;;;1.42;;
71413;SDS011;59226;53.212;5.728;2023-02-15T04:25:41;4.97;;;2.17;;
71413;SDS011;59226;53.212;5.728;2023-02-15T04:28:06;3.43;;;1.50;;
71413;SDS011;59226;53.212;5.728;2023-02-15T04:30:32;4.47;;;2.55;;
71413;SDS011;59226;53.212;5.728;2023-02-15T04:32:58;3.53;;;1.93;;
71413;SDS011;59226;53.212;5.728;2023-02-15T04:35:23;7.50;;;2.33;;
71413;SDS011;59226;53.212;5.728;2023-02-15T04:37:48;4.67;;;2.17;;
71413;SDS011;59226;53.212;5.728;2023-02-15T04:40:14;6.30;;;2.90;;
71413;SDS011;59226;53.212;5.728;2023-02-15T04:42:39;5.90;;;3.00;;
71413;SDS011;59226;53.212;5.728;2023-02-15T04:45:05;3.73;;;2.57;;
71413;SDS011;59226;53.212;5.728;2023-02-15T04:47:30;4.25;;;2.30;;
71413;SDS011;59226;53.212;5.728;2023-02-15T04:49:55;4.87;;;2.87;;
71413;SDS011;59226;53.212;5.728;2023-02-15T04:52:21;5.47;;;2.20;;
71413;SDS011;59226;53.212;5.728;2023-02-15T04:54:46;5.07;;;2.70;;
71413;SDS011;59226;53.212;5.728;2023-02-15T04:57:12;7.87;;;3.43;;
71413;SDS011;59226;53.212;5.728;2023-02-15T04:59:37;4.88;;;2.58;;
71413;SDS011;59226;53.212;5.728;2023-02-15T05:02:03;3.57;;;2.10;;
71413;SDS011;59226;53.212;5.728;2023-02-15T05:04:28;4.77;;;2.60;;
71413;SDS011;59226;53.212;5.728;2023-02-15T05:06:53;4.30;;;2.73;;
71413;SDS011;59226;53.212;5.728;2023-02-15T05:09:18;4.63;;;2.47;;
71413;SDS011;59226;53.212;5.728;2023-02-15T05:11:44;9.10;;;3.13;;
71413;SDS011;59226;53.212;5.728;2023-02-15T05:14:09;7.43;;;2.90;;
71413;SDS011;59226;53.212;5.728;2023-02-15T05:16:34;3.27;;;2.30;;
71413;SDS011;59226;53.212;5.728;2023-02-15T05:18:59;4.47;;;2.33;;
71413;SDS011;59226;53.212;5.728;2023-02-15T05:21:25;5.97;;;3.33;;
71413;SDS011;59226;53.212;5.728;2023-02-15T05:23:50;9.13;;;3.93;;
71413;SDS011;59226;53.212;5.728;2023-02-15T05:26:16;5.22;;;3.28;;
71413;SDS011;59226;53.212;5.728;2023-02-15T05:29:00;4.57;;;2.90;;
71413;SDS011;59226;53.212;5.728;2023-02-15T05:31:25;4.87;;;2.20;;
71413;SDS011;59226;53.212;5.728;2023-02-15T05:33:51;5.90;;;2.57;;
71413;SDS011;59226;53.212;5.728;2023-02-15T05:36:16;3.53;;;2.13;;
71413;SDS011;59226;53.212;5.728;2023-02-15T05:38:41;8.40;;;3.47;;
71413;SDS011;59226;53.212;5.728;2023-02-15T05:41:07;7.83;;;3.80;;
71413;SDS011;59226;53.212;5.728;2023-02-15T05:43:33;10.35;;;4.72;;
71413;SDS011;59226;53.212;5.728;2023-02-15T05:45:58;5.57;;;3.63;;
71413;SDS011;59226;53.212;5.728;2023-02-15T05:48:24;6.70;;;2.87;;
71413;SDS011;59226;53.212;5.728;2023-02-15T05:51:05;7.13;;;3.63;;
71413;SDS011;59226;53.212;5.728;2023-02-15T05:53:32;5.72;;;1.95;;
71413;SDS011;59226;53.212;5.728;2023-02-15T05:55:57;6.45;;;3.20;;
71413;SDS011;59226;53.212;5.728;2023-02-15T05:58:27;10.88;;;3.65;;
71413;SDS011;59226;53.212;5.728;2023-02-15T06:00:53;6.90;;;3.53;;
71413;SDS011;59226;53.212;5.728;2023-02-15T06:03:18;4.93;;;3.13;;
71413;SDS011;59226;53.212;5.728;2023-02-15T06:05:44;10.50;;;3.05;;
71413;SDS011;59226;53.212;5.728;2023-02-15T06:08:10;6.55;;;3.05;;
71413;SDS011;59226;53.212;5.728;2023-02-15T06:10:35;7.63;;;4.50;;
71413;SDS011;59226;53.212;5.728;2023-02-15T06:13:00;5.70;;;3.80;;
71413;SDS011;59226;53.212;5.728;2023-02-15T06:15:25;7.23;;;3.47;;
71413;SDS011;59226;53.212;5.728;2023-02-15T06:17:51;5.67;;;3.00;;
71413;SDS011;59226;53.212;5.728;2023-02-15T06:20:16;6.40;;;2.67;;
71413;SDS011;59226;53.212;5.728;2023-02-15T06:22:42;9.33;;;3.73;;
71413;SDS011;59226;53.212;5.728;2023-02-15T06:25:07;7.73;;;3.07;;
71413;SDS011;59226;53.212;5.728;2023-02-15T06:27:35;6.88;;;3.00;;
71413;SDS011;59226;53.212;5.728;2023-02-15T06:30:00;5.13;;;2.40;;
71413;SDS011;59226;53.212;5.728;2023-02-15T06:32:25;4.83;;;2.83;;
71413;SDS011;59226;53.212;5.728;2023-02-15T06:34:50;4.53;;;2.37;;
71413;SDS011;59226;53.212;5.728;2023-02-15T06:37:16;6.07;;;3.25;;
71413;SDS011;59226;53.212;5.728;2023-02-15T06:39:41;5.90;;;3.07;;
71413;SDS011;59226;53.212;5.728;2023-02-15T06:42:07;10.73;;;4.82;;
71413;SDS011;59226;53.212;5.728;2023-02-15T06:44:32;8.40;;;3.37;;
71413;SDS011;59226;53.212;5.728;2023-02-15T06:46:57;9.13;;;4.47;;
71413;SDS011;59226;53.212;5.728;2023-02-15T06:49:22;9.27;;;4.67;;
71413;SDS011;59226;53.212;5.728;2023-02-15T06:51:48;10.20;;;4.03;;
71413;SDS011;59226;53.212;5.728;2023-02-15T06:54:13;8.83;;;4.33;;
71413;SDS011;59226;53.212;5.728;2023-02-15T06:56:38;18.70;;;3.87;;
71413;SDS011;59226;53.212;5.728;2023-02-15T06:59:04;7.00;;;4.03;;
71413;SDS011;59226;53.212;5.728;2023-02-15T07:01:29;13.17;;;5.00;;
71413;SDS011;59226;53.212;5.728;2023-02-15T07:03:54;7.80;;;3.73;;
71413;SDS011;59226;53.212;5.728;2023-02-15T07:06:19;6.33;;;3.80;;
71413;SDS011;59226;53.212;5.728;2023-02-15T07:08:45;5.83;;;3.43;;
71413;SDS011;59226;53.212;5.728;2023-02-15T07:11:10;7.50;;;5.00;;
71413;SDS011;59226;53.212;5.728;2023-02-15T07:13:54;8.20;;;3.78;;
71413;SDS011;59226;53.212;5.728;2023-02-15T07:16:19;7.63;;;3.43;;
71413;SDS011;59226;53.212;5.728;2023-02-15T07:18:44;9.27;;;5.43;;
71413;SDS011;59226;53.212;5.728;2023-02-15T07:21:10;9.87;;;4.10;;
71413;SDS011;59226;53.212;5.728;2023-02-15T07:23:35;9.03;;;3.73;;
71413;SDS011;59226;53.212;5.728;2023-02-15T07:26:01;4.47;;;3.50;;
71413;SDS011;59226;53.212;5.728;2023-02-15T07:28:27;10.45;;;5.43;;
71413;SDS011;59226;53.212;5.728;2023-02-15T07:30:53;8.63;;;4.03;;
71413;SDS011;59226;53.212;5.728;2023-02-15T07:33:18;9.03;;;4.43;;
71413;SDS011;59226;53.212;5.728;2023-02-15T07:35:50;7.40;;;3.70;;
71413;SDS011;59226;53.212;5.728;2023-02-15T07:38:16;5.88;;;3.33;;
71413;SDS011;59226;53.212;5.728;2023-02-15T07:40:42;9.83;;;3.93;;
71413;SDS011;59226;53.212;5.728;2023-02-15T07:43:07;15.52;;;3.17;;
71413;SDS011;59226;53.212;5.728;2023-02-15T07:45:32;5.63;;;2.97;;
71413;SDS011;59226;53.212;5.728;2023-02-15T07:47:57;8.13;;;3.53;;
71413;SDS011;59226;53.212;5.728;2023-02-15T07:50:23;7.13;;;4.03;;
71413;SDS011;59226;53.212;5.728;2023-02-15T07:52:48;11.63;;;4.20;;
71413;SDS011;59226;53.212;5.728;2023-02-15T07:55:13;7.20;;;3.83;;
71413;SDS011;59226;53.212;5.728;2023-02-15T07:57:45;10.03;;;4.13;;
71413;SDS011;59226;53.212;5.728;2023-02-15T08:00:11;4.50;;;2.67;;
71413;SDS011;59226;53.212;5.728;2023-02-15T08:02:37;9.77;;;4.70;;
71413;SDS011;59226;53.212;5.728;2023-02-15T08:05:02;8.03;;;4.53;;
71413;SDS011;59226;53.212;5.728;2023-02-15T08:07:28;7.53;;;4.60;;
71413;SDS011;59226;53.212;5.728;2023-02-15T08:09:53;12.77;;;7.00;;
71413;SDS011;59226;53.212;5.728;2023-02-15T08:12:18;7.17;;;4.83;;
71413;SDS011;59226;53.212;5.728;2023-02-15T08:14:44;10.83;;;5.27;;
71413;SDS011;59226;53.212;5.728;2023-02-15T08:17:09;11.93;;;4.60;;
71413;SDS011;59226;53.212;5.728;2023-02-15T08:19:34;14.67;;;6.20;;
71413;SDS011;59226;53.212;5.728;2023-02-15T08:22:04;11.32;;;4.65;;
71413;SDS011;59226;53.212;5.728;2023-02-15T08:24:31;7.00;;;3.28;;
71413;SDS011;59226;53.212;5.728;2023-02-15T08:26:57;6.75;;;3.70;;
71413;SDS011;59226;53.212;5.728;2023-02-15T08:29:23;11.30;;;3.93;;
71413;SDS011;59226;53.212;5.728;2023-02-15T08:31:48;7.53;;;4.63;;
71413;SDS011;59226;53.212;5.728;2023-02-15T08:34:15;8.38;;;4.43;;
71413;SDS011;59226;53.212;5.728;2023-02-15T08:36:41;7.27;;;4.13;;
71413;SDS011;59226;53.212;5.728;2023-02-15T08:39:06;6.43;;;3.67;;
71413;SDS011;59226;53.212;5.728;2023-02-15T08:41:33;15.70;;;5.18;;
71413;SDS011;59226;53.212;5.728;2023-02-15T08:44:00;6.85;;;3.40;;
71413;SDS011;59226;53.212;5.728;2023-02-15T08:46:27;9.17;;;3.63;;
71413;SDS011;59226;53.212;5.728;2023-02-15T08:48:53;6.97;;;4.60;;
71413;SDS011;59226;53.212;5.728;2023-02-15T08:51:20;5.40;;;3.43;;
71413;SDS011;59226;53.212;5.728;2023-02-15T08:53:47;10.05;;;5.07;;
71413;SDS011;59226;53.212;5.728;2023-02-15T08:56:16;12.85;;;4.70;;
71413;SDS011;59226;53.212;5.728;2023-02-15T08:58:41;14.87;;;5.93;;
71413;SDS011;59226;53.212;5.728;2023-02-15T09:01:13;9.10;;;4.53;;
71413;SDS011;59226;53.212;5.728;2023-02-15T09:03:42;16.23;;;4.43;;
71413;SDS011;59226;53.212;5.728;2023-02-15T09:06:07;9.53;;;5.40;;
71413;SDS011;59226;53.212;5.728;2023-02-15T09:08:33;7.93;;;4.50;;
71413;SDS011;59226;53.212;5.728;2023-02-15T09:13:33;8.80;;;4.77;;
71413;SDS011;59226;53.212;5.728;2023-02-15T09:15:59;7.82;;;4.00;;
71413;SDS011;59226;53.212;5.728;2023-02-15T09:18:24;9.63;;;4.72;;
71413;SDS011;59226;53.212;5.728;2023-02-15T09:20:50;11.93;;;4.73;;
71413;SDS011;59226;53.212;5.728;2023-02-15T09:23:15;11.07;;;5.30;;
71413;SDS011;59226;53.212;5.728;2023-02-15T09:25:40;9.17;;;5.87;;
71413;SDS011;59226;53.212;5.728;2023-02-15T09:28:07;8.45;;;4.32;;
71413;SDS011;59226;53.212;5.728;2023-02-15T09:30:33;9.53;;;5.00;;
71413;SDS011;59226;53.212;5.728;2023-02-15T09:32:58;14.87;;;6.83;;
71413;SDS011;59226;53.212;5.728;2023-02-15T09:35:23;8.97;;;4.97;;
71413;SDS011;59226;53.212;5.728;2023-02-15T09:37:48;6.27;;;3.97;;
71413;SDS011;59226;53.212;5.728;2023-02-15T09:40:14;15.68;;;5.85;;
71413;SDS011;59226;53.212;5.728;2023-02-15T09:48:05;9.48;;;5.55;;
71413;SDS011;59226;53.212;5.728;2023-02-15T10:00:46;19.43;;;6.07;;
71413;SDS011;59226;53.212;5.728;2023-02-15T10:03:18;14.45;;;7.55;;
71413;SDS011;59226;53.212;5.728;2023-02-15T10:10:57;11.68;;;6.75;;
71413;SDS011;59226;53.212;5.728;2023-02-15T10:13:49;14.32;;;6.13;;
71413;SDS011;59226;53.212;5.728;2023-02-15T10:16:35;9.07;;;5.70;;
71413;SDS011;59226;53.212;5.728;2023-02-15T10:21:37;16.52;;;6.43;;
71413;SDS011;59226;53.212;5.728;2023-02-15T10:24:21;10.23;;;7.05;;
71413;SDS011;59226;53.212;5.728;2023-02-15T10:26:48;13.55;;;6.75;;
71413;SDS011;59226;53.212;5.728;2023-02-15T10:34:17;13.40;;;7.40;;
71413;SDS011;59226;53.212;5.728;2023-02-15T10:41:54;17.10;;;8.60;;
71413;SDS011;59226;53.212;5.728;2023-02-15T10:59:45;13.77;;;6.27;;
71413;SDS011;59226;53.212;5.728;2023-02-15T11:07:40;11.32;;;6.60;;
71413;SDS011;59226;53.212;5.728;2023-02-15T11:12:31;15.70;;;7.43;;
71413;SDS011;59226;53.212;5.728;2023-02-15T11:15:04;18.37;;;8.40;;
71413;SDS011;59226;53.212;5.728;2023-02-15T11:17:39;15.55;;;7.93;;
71413;SDS011;59226;53.212;5.728;2023-02-15T11:20:11;16.98;;;7.85;;
71413;SDS011;59226;53.212;5.728;2023-02-15T11:22:40;16.88;;;8.23;;
71413;SDS011;59226;53.212;5.728;2023-02-15T11:25:14;19.07;;;7.80;;
71413;SDS011;59226;53.212;5.728;2023-02-15T11:27:40;12.45;;;6.57;;
71413;SDS011;59226;53.212;5.728;2023-02-15T11:32:37;15.18;;;7.60;;
71413;SDS011;59226;53.212;5.728;2023-02-15T11:40:14;18.42;;;9.10;;
71413;SDS011;59226;53.212;5.728;2023-02-15T11:42:40;18.80;;;6.90;;
71413;SDS011;59226;53.212;5.728;2023-02-15T11:47:49;13.33;;;6.50;;
71413;SDS011;59226;53.212;5.728;2023-02-15T11:50:15;20.60;;;7.83;;
71413;SDS011;59226;53.212;5.728;2023-02-15T11:52:41;23.85;;;7.60;;
71413;SDS011;59226;53.212;5.728;2023-02-15T11:55:11;20.63;;;7.30;;
71413;SDS011;59226;53.212;5.728;2023-02-15T11:57:38;11.55;;;6.90;;
71413;SDS011;59226;53.212;5.728;2023-02-15T12:03:02;16.65;;;8.48;;
71413;SDS011;59226;53.212;5.728;2023-02-15T12:05:28;17.85;;;8.70;;
71413;SDS011;59226;53.212;5.728;2023-02-15T12:07:55;15.67;;;7.90;;
71413;SDS011;59226;53.212;5.728;2023-02-15T12:10:23;20.90;;;9.75;;
71413;SDS011;59226;53.212;5.728;2023-02-15T12:13:08;24.90;;;8.97;;
71413;SDS011;59226;53.212;5.728;2023-02-15T12:15:33;15.00;;;8.13;;
71413;SDS011;59226;53.212;5.728;2023-02-15T12:18:00;15.00;;;7.78;;
71413;SDS011;59226;53.212;5.728;2023-02-15T12:20:28;16.57;;;9.10;;
71413;SDS011;59226;53.212;5.728;2023-02-15T12:22:55;15.23;;;8.00;;
71413;SDS011;59226;53.212;5.728;2023-02-15T12:25:35;16.25;;;8.27;;
71413;SDS011;59226;53.212;5.728;2023-02-15T12:28:01;22.98;;;8.50;;
71413;SDS011;59226;53.212;5.728;2023-02-15T12:30:45;20.43;;;8.53;;
71413;SDS011;59226;53.212;5.728;2023-02-15T12:33:23;17.50;;;8.63;;
71413;SDS011;59226;53.212;5.728;2023-02-15T12:35:54;20.50;;;7.70;;
71413;SDS011;59226;53.212;5.728;2023-02-15T12:38:23;22.17;;;8.88;;
71413;SDS011;59226;53.212;5.728;2023-02-15T12:41:02;16.20;;;7.90;;
71413;SDS011;59226;53.212;5.728;2023-02-15T12:43:32;16.40;;;7.43;;
71413;SDS011;59226;53.212;5.728;2023-02-15T12:46:14;20.23;;;8.63;;
71413;SDS011;59226;53.212;5.728;2023-02-15T12:48:43;15.60;;;6.90;;
71413;SDS011;59226;53.212;5.728;2023-02-15T12:51:09;18.60;;;7.03;;
71413;SDS011;59226;53.212;5.728;2023-02-15T12:53:38;16.00;;;7.50;;
71413;SDS011;59226;53.212;5.728;2023-02-15T12:56:05;17.33;;;6.97;;
71413;SDS011;59226;53.212;5.728;2023-02-15T12:58:31;18.53;;;7.87;;
71413;SDS011;59226;53.212;5.728;2023-02-15T13:03:36;13.93;;;6.35;;
71413;SDS011;59226;53.212;5.728;2023-02-15T13:06:02;20.40;;;8.52;;
71413;SDS011;59226;53.212;5.728;2023-02-15T13:08:33;12.90;;;6.18;;
71413;SDS011;59226;53.212;5.728;2023-02-15T13:10:59;13.93;;;6.60;;
71413;SDS011;59226;53.212;5.728;2023-02-15T13:13:26;17.20;;;6.03;;
71413;SDS011;59226;53.212;5.728;2023-02-15T13:15:53;18.50;;;9.55;;
71413;SDS011;59226;53.212;5.728;2023-02-15T13:18:25;18.77;;;8.25;;
71413;SDS011;59226;53.212;5.728;2023-02-15T13:20:52;17.58;;;7.03;;
71413;SDS011;59226;53.212;5.728;2023-02-15T13:23:27;14.97;;;7.30;;
71413;SDS011;59226;53.212;5.728;2023-02-15T13:25:53;16.30;;;7.57;;
71413;SDS011;59226;53.212;5.728;2023-02-15T13:28:20;18.40;;;7.60;;
71413;SDS011;59226;53.212;5.728;2023-02-15T13:30:47;18.52;;;9.10;;
71413;SDS011;59226;53.212;5.728;2023-02-15T13:35:50;19.15;;;8.73;;
71413;SDS011;59226;53.212;5.728;2023-02-15T13:40:46;20.20;;;7.83;;
71413;SDS011;59226;53.212;5.728;2023-02-15T13:53:33;21.42;;;7.65;;
71413;SDS011;59226;53.212;5.728;2023-02-15T14:09:18;20.00;;;9.30;;
71413;SDS011;59226;53.212;5.728;2023-02-15T14:16:45;22.90;;;9.48;;
71413;SDS011;59226;53.212;5.728;2023-02-15T14:19:19;18.07;;;8.33;;
71413;SDS011;59226;53.212;5.728;2023-02-15T14:24:24;16.40;;;7.20;;
71413;SDS011;59226;53.212;5.728;2023-02-15T14:32:10;18.55;;;7.30;;
71413;SDS011;59226;53.212;5.728;2023-02-15T14:34:46;20.43;;;7.47;;
71413;SDS011;59226;53.212;5.728;2023-02-15T14:37:13;18.25;;;7.80;;
71413;SDS011;59226;53.212;5.728;2023-02-15T14:39:46;22.30;;;7.82;;
71413;SDS011;59226;53.212;5.728;2023-02-15T14:42:34;17.48;;;6.88;;
71413;SDS011;59226;53.212;5.728;2023-02-15T14:45:05;18.67;;;8.65;;
71413;SDS011;59226;53.212;5.728;2023-02-15T14:47:33;15.03;;;6.93;;
71413;SDS011;59226;53.212;5.728;2023-02-15T14:50:23;17.02;;;8.93;;
71413;SDS011;59226;53.212;5.728;2023-02-15T14:55:34;13.60;;;7.20;;
71413;SDS011;59226;53.212;5.728;2023-02-15T14:58:00;15.05;;;8.32;;
71413;SDS011;59226;53.212;5.728;2023-02-15T15:00:30;20.40;;;9.20;;
71413;SDS011;59226;53.212;5.728;2023-02-15T15:02:56;21.97;;;7.73;;
71413;SDS011;59226;53.212;5.728;2023-02-15T15:05:34;18.53;;;8.30;;
71413;SDS011;59226;53.212;5.728;2023-02-15T15:08:01;18.13;;;8.05;;
71413;SDS011;59226;53.212;5.728;2023-02-15T15:10:44;15.15;;;7.75;;
71413;SDS011;59226;53.212;5.728;2023-02-15T15:15:53;14.55;;;7.50;;
71413;SDS011;59226;53.212;5.728;2023-02-15T15:21:02;17.47;;;8.47;;
71413;SDS011;59226;53.212;5.728;2023-02-15T15:29:03;18.07;;;8.50;;
71413;SDS011;59226;53.212;5.728;2023-02-15T15:33:46;15.43;;;8.02;;
71413;SDS011;59226;53.212;5.728;2023-02-15T15:36:22;15.63;;;7.85;;
71413;SDS011;59226;53.212;5.728;2023-02-15T15:41:42;17.57;;;9.00;;
71413;SDS011;59226;53.212;5.728;2023-02-15T15:44:20;16.60;;;8.05;;
71413;SDS011;59226;53.212;5.728;2023-02-15T15:49:20;21.30;;;7.83;;
71413;SDS011;59226;53.212;5.728;2023-02-15T15:51:46;16.75;;;9.13;;
71413;SDS011;59226;53.212;5.728;2023-02-15T15:54:29;16.77;;;8.55;;
71413;SDS011;59226;53.212;5.728;2023-02-15T15:57:00;16.63;;;7.20;;
71413;SDS011;59226;53.212;5.728;2023-02-15T15:59:33;13.80;;;7.85;;
71413;SDS011;59226;53.212;5.728;2023-02-15T16:02:06;14.07;;;7.57;;
71413;SDS011;59226;53.212;5.728;2023-02-15T16:04:33;18.58;;;8.32;;
71413;SDS011;59226;53.212;5.728;2023-02-15T16:07:13;21.70;;;7.07;;
71413;SDS011;59226;53.212;5.728;2023-02-15T16:09:38;17.93;;;8.03;;
71413;SDS011;59226;53.212;5.728;2023-02-15T16:12:04;17.33;;;7.28;;
71413;SDS011;59226;53.212;5.728;2023-02-15T16:14:31;16.33;;;8.25;;
71413;SDS011;59226;53.212;5.728;2023-02-15T16:16:58;16.77;;;5.87;;
71413;SDS011;59226;53.212;5.728;2023-02-15T16:19:28;17.23;;;7.95;;
71413;SDS011;59226;53.212;5.728;2023-02-15T16:21:54;14.70;;;6.72;;
71413;SDS011;59226;53.212;5.728;2023-02-15T16:27:25;15.13;;;7.13;;
71413;SDS011;59226;53.212;5.728;2023-02-15T16:29:49;20.47;;;9.40;;
71413;SDS011;59226;53.212;5.728;2023-02-15T16:32:21;18.53;;;8.03;;
71413;SDS011;59226;53.212;5.728;2023-02-15T16:34:50;20.23;;;10.30;;
71413;SDS011;59226;53.212;5.728;2023-02-15T16:37:16;11.77;;;6.10;;
71413;SDS011;59226;53.212;5.728;2023-02-15T16:39:42;17.15;;;8.18;;
71413;SDS011;59226;53.212;5.728;2023-02-15T16:42:09;24.42;;;9.50;;
71413;SDS011;59226;53.212;5.728;2023-02-15T16:44:35;20.93;;;10.10;;
71413;SDS011;59226;53.212;5.728;2023-02-15T16:47:00;18.97;;;8.00;;
71413;SDS011;59226;53.212;5.728;2023-02-15T16:49:26;16.33;;;7.80;;
71413;SDS011;59226;53.212;5.728;2023-02-15T16:52:03;20.70;;;7.53;;
71413;SDS011;59226;53.212;5.728;2023-02-15T16:54:32;18.55;;;8.27;;
71413;SDS011;59226;53.212;5.728;2023-02-15T16:56:58;16.33;;;8.03;;
71413;SDS011;59226;53.212;5.728;2023-02-15T16:59:29;18.73;;;7.67;;
71413;SDS011;59226;53.212;5.728;2023-02-15T17:01:55;19.30;;;8.52;;
71413;SDS011;59226;53.212;5.728;2023-02-15T17:09:31;15.93;;;7.63;;
71413;SDS011;59226;53.212;5.728;2023-02-15T17:11:57;16.80;;;8.65;;
71413;SDS011;59226;53.212;5.728;2023-02-15T17:14:28;22.13;;;9.40;;
71413;SDS011;59226;53.212;5.728;2023-02-15T17:16:58;20.20;;;7.15;;
71413;SDS011;59226;53.212;5.728;2023-02-15T17:19:25;24.20;;;9.55;;
71413;SDS011;59226;53.212;5.728;2023-02-15T17:22:04;21.15;;;7.95;;
71413;SDS011;59226;53.212;5.728;2023-02-15T17:26:57;17.67;;;8.97;;
71413;SDS011;59226;53.212;5.728;2023-02-15T17:31:53;20.15;;;10.10;;
71413;SDS011;59226;53.212;5.728;2023-02-15T17:37:03;22.15;;;9.02;;
71413;SDS011;59226;53.212;5.728;2023-02-15T17:39:28;21.50;;;11.10;;
71413;SDS011;59226;53.212;5.728;2023-02-15T17:41:53;16.70;;;9.07;;
71413;SDS011;59226;53.212;5.728;2023-02-15T17:44:19;17.10;;;7.93;;